Nearby METAR Reports

 

KORH - Worcester, Massachusetts, USA
Distance from station: NW 4mi, 7km
Updated: Sat, 25-Jan-2020 1:11am EST
Overcast
Overcast
 Wind from NNE
Wind: NNE 8 mph , 13 km/h
Temperature: 34°F , 1°C
Wind Chill: 27°F , -3°C
Dew Point: 30°F , -1°C
Humidity: 87%
Barometer: 30.30 inHg , 1026.1 hPa
Clouds: Overcast
Visibility: 7 miles , 11 km
Cloud details: Partly cloudy 300 ft
Overcast 1400 ft
2020/01/25 06:11 KORH 250611Z AUTO 02007KT 360V070 7SM SCT003 OVC014 01/M01 A3030 RMK AO2 T00061006
KBOS - Boston, Massachusetts, USA
Distance from station: ENE 42mi, 68km
Updated: Sat, 25-Jan-2020 12:54am EST
Overcast
Overcast
 Wind from E
Wind: E 8 mph , 13 km/h
Temperature: 41°F , 5°C
Wind Chill: 36°F , 2°C
Dew Point: 34°F , 1°C
Humidity: 76%
Barometer: 30.36 inHg , 1028.1 hPa
Clouds: Overcast
Visibility: 10 miles , 16 km
Cloud details: Overcast 2200 ft
2020/01/25 05:54 KBOS 250554Z 08007KT 10SM OVC022 05/01 A3036 RMK AO2 SLP280 T00500006 10056 20033 58015
 
KCQX - Chatham, Massachusetts, USA
Distance from station: SE 102mi, 164km
Updated: Sat, 25-Jan-2020 12:52am EST
Overcast
Overcast
 Wind from E
Wind: E 7 mph , 11 km/h
Temperature: 41°F , 5°C
Wind Chill: 36°F , 2°C
Dew Point: 36°F , 2°C
Humidity: 81%
Barometer: 30.35 inHg , 1027.8 hPa
Clouds: Overcast
Visibility: 10 miles , 16 km
Cloud details: Overcast 1700 ft
2020/01/25 05:52 KCQX 250552Z AUTO 10006KT 10SM OVC017 05/02 A3035 RMK AO2 SLP278 T00500022 10050 20039 58014
KMVY - Marthas Vineyard, Massachusetts, USA
Distance from station: SE 84mi, 135km
Updated: Sat, 25-Jan-2020 12:53am EST
Clear
Clear
 Wind from E
Wind: E 8 mph , 13 km/h
Temperature: 36°F , 2°C
Wind Chill: 30°F , -1°C
Dew Point: 34°F , 1°C
Humidity: 93%
Barometer: 30.31 inHg , 1026.4 hPa
Clouds: Clear
Visibility: 10 miles , 16 km
2020/01/25 05:53 KMVY 250553Z AUTO 08007KT 10SM CLR 02/01 A3031 RMK AO2 SLP265 T00220011 10028 21011 58018
 
KPVC - Provincetown, Massachusetts, USA
Distance from station: NNW 85mi, 136km
Updated: Sat, 25-Jan-2020 12:56am EST
Overcast
Overcast
 Wind from E
Wind: E 10 mph , 17 km/h
Temperature: 37°F , 3°C
Wind Chill: 30°F , -1°C
Dew Point: 36°F , 2°C
Humidity: 93%
Barometer: 30.35 inHg , 1027.8 hPa
Clouds: Overcast
Visibility: 10 miles , 16 km
Cloud details: Overcast 2000 ft
2020/01/25 05:56 KPVC 250556Z AUTO 10009KT 10SM OVC020 03/02 A3035 RMK AO2 SLP277 6//// T00330017 10039 21017 58015 PNO $
KAQW - Savoy, Massachusetts, USA
Distance from station: NNW 66mi, 106km
Updated: Sat, 25-Jan-2020 12:52am EST
Clear
Clear
 Wind from E
Wind: E 10 mph , 17 km/h, Gust: 18 mph , 30 km/h
Temperature: 36°F , 2°C
Wind Chill: 29°F , -2°C
Dew Point: 27°F , -3°C
Humidity: 70%
Barometer: 30.29 inHg , 1025.7 hPa
Clouds: Clear
Visibility: 10 miles , 16 km
2020/01/25 05:52 KAQW 250552Z AUTO 10009G16KT 10SM CLR 02/M03 A3029 RMK AO2 SLPNO T00171033 10056 20011 58012 $
 
KIZG - Fryeburg, Maine, USA
Distance from station: NNE 133mi, 214km
Updated: Sat, 25-Jan-2020 12:54am EST
Overcast
Overcast
 Wind from WNW
Wind: WNW 3 mph , 6 km/h
Temperature: 30°F , -1°C
Dew Point: 27°F , -3°C
Humidity: 86%
Barometer: 30.41 inHg , 1029.8 hPa
Clouds: Overcast
Visibility: 10 miles , 16 km
Cloud details: Overcast 2200 ft
2020/01/25 05:54 KIZG 250554Z AUTO 30003KT 10SM OVC022 M01/M03 A3041 RMK AO2 SLP302 I6001 T10111033 11011 21056 58013
KMWN - Mt Washington, New Hampshire, USA
Distance from station: NNE 146mi, 234km
Updated: Sat, 25-Jan-2020 12:54am EST

 Wind from S
Wind: S 18 mph , 30 km/h
Visibility: 120 miles , 192 km
2020/01/25 05:54 KMWN 250554Z 18016KT 120SM BKN/// FEW080 SCT140 BKN180 M02/M11 RMK TPS LWR BKN048 4/005 11015 21026
 
KBML - Berlin, New Hampshire, USA
Distance from station: NNE 160mi, 257km
Updated: Sat, 25-Jan-2020 12:52am EST
Few Clouds
Few Clouds
 Wind from calm
Wind: Calm
Temperature: 19°F , -7°C
Dew Point: 16°F , -9°C
Humidity: 86%
Barometer: 30.35 inHg , 1027.8 hPa
Clouds: Few Clouds
Visibility: 10 miles , 16 km
Cloud details: Few Clouds 2000 ft
2020/01/25 05:52 KBML 250552Z AUTO 00000KT 10SM FEW020 M07/M09 A3035 RMK AO2 SLP294 I1000 I6000 T10671089 11022 21072 56006